createdAt,value
2022-11-28T00:01:20.690Z,100470.00
2022-11-28T00:03:49.384Z,100469.69
2022-11-28T00:06:16.112Z,100471.06
2022-11-28T00:08:45.531Z,100464.22
2022-11-28T00:11:14.319Z,100453.94
2022-11-28T00:13:41.478Z,100462.41
2022-11-28T00:16:09.825Z,100445.81
2022-11-28T00:18:36.481Z,100443.31
2022-11-28T00:21:07.049Z,100438.44
2022-11-28T00:23:34.282Z,100438.63
2022-11-28T00:26:06.605Z,100434.56
2022-11-28T00:28:33.615Z,100427.31
2022-11-28T00:31:00.628Z,100438.69
2022-11-28T00:33:27.074Z,100439.09
2022-11-28T00:36:05.944Z,100428.72
2022-11-28T00:38:35.442Z,100428.41
2022-11-28T00:41:07.453Z,100448.81
2022-11-28T00:43:34.384Z,100447.41
2022-11-28T00:46:00.882Z,100450.75
2022-11-28T00:48:29.959Z,100431.28
2022-11-28T00:51:07.233Z,100443.97
2022-11-28T00:53:34.116Z,100434.47
2022-11-28T00:56:00.501Z,100435.06
2022-11-28T00:58:26.992Z,100435.66
2022-11-28T01:00:53.519Z,100436.31
2022-11-28T01:03:22.375Z,100427.59
2022-11-28T01:05:48.799Z,100433.44
2022-11-28T01:08:17.511Z,100430.53
2022-11-28T01:10:47.830Z,100430.63
2022-11-28T01:13:14.199Z,100424.09
2022-11-28T01:15:42.887Z,100430.66
2022-11-28T01:18:09.471Z,100430.75
2022-11-28T01:20:36.305Z,100432.06
2022-11-28T01:23:03.109Z,100430.66
2022-11-28T01:25:30.317Z,100417.16
2022-11-28T01:27:56.816Z,100422.56
2022-11-28T01:30:23.466Z,100420.16
2022-11-28T01:32:52.339Z,100423.00
2022-11-28T01:35:18.754Z,100417.91
2022-11-28T01:37:45.345Z,100411.88
2022-11-28T01:40:16.698Z,100406.88
2022-11-28T01:42:43.107Z,100407.41
2022-11-28T01:45:21.620Z,100419.56
2022-11-28T01:47:53.470Z,100434.63
2022-11-28T01:50:21.495Z,100411.06
2022-11-28T01:52:54.631Z,100407.81
2022-11-28T01:55:24.355Z,100406.97
2022-11-28T01:57:54.045Z,100392.59
2022-11-28T02:00:22.067Z,100371.50
2022-11-28T02:03:00.534Z,100365.84
2022-11-28T02:05:30.473Z,100370.66
2022-11-28T02:07:56.941Z,100369.16
2022-11-28T02:10:32.425Z,100370.53
2022-11-28T02:13:07.275Z,100340.09
2022-11-28T02:15:46.234Z,100345.03
2022-11-28T02:18:24.529Z,100351.13
2022-11-28T02:21:17.117Z,100357.69
2022-11-28T02:24:17.426Z,100338.88
2022-11-28T02:27:11.741Z,100342.91
2022-11-28T02:29:47.028Z,100350.69
2022-11-28T02:32:24.872Z,100358.59
2022-11-28T02:35:05.630Z,100354.50
2022-11-28T02:37:48.174Z,100355.50
2022-11-28T02:40:26.639Z,100354.09
2022-11-28T02:43:11.959Z,100342.06
2022-11-28T02:45:55.201Z,100345.19
2022-11-28T02:48:58.894Z,100325.94
2022-11-28T02:51:34.511Z,100322.25
2022-11-28T02:54:03.610Z,100332.94
2022-11-28T02:56:30.152Z,100331.69
2022-11-28T02:58:59.000Z,100334.19
2022-11-28T03:01:38.380Z,100339.44
2022-11-28T03:04:13.180Z,100330.16
2022-11-28T03:07:09.048Z,100331.88
2022-11-28T03:09:45.293Z,100332.00
2022-11-28T03:12:42.472Z,100326.59
2022-11-28T03:15:11.684Z,100326.06
2022-11-28T03:18:03.026Z,100309.00
2022-11-28T03:20:47.596Z,100299.34
2022-11-28T03:23:21.071Z,100313.72
2022-11-28T03:26:18.108Z,100300.53
2022-11-28T03:28:47.668Z,100298.50
2022-11-28T03:31:19.745Z,100298.69
2022-11-28T03:33:51.638Z,100301.66
2022-11-28T03:36:32.293Z,100313.34
2022-11-28T03:39:04.775Z,100312.28
2022-11-28T03:41:47.679Z,100317.13
2022-11-28T03:44:21.424Z,100312.50
2022-11-28T03:46:50.044Z,100315.53
2022-11-28T03:49:22.381Z,100311.59
2022-11-28T03:51:57.598Z,100310.75
2022-11-28T03:54:34.569Z,100313.06
2022-11-28T03:57:17.519Z,100316.78
2022-11-28T03:59:53.404Z,100317.31
2022-11-28T04:02:42.374Z,100313.22
2022-11-28T04:05:23.923Z,100314.69
2022-11-28T04:07:56.514Z,100304.56
2022-11-28T04:10:38.267Z,100298.84
2022-11-28T04:13:13.151Z,100301.09
2022-11-28T04:15:41.736Z,100300.25
2022-11-28T04:18:29.731Z,100306.03
2022-11-28T04:21:14.900Z,100304.72
2022-11-28T04:23:44.393Z,100301.56
2022-11-28T04:26:35.171Z,100301.69
2022-11-28T04:29:10.943Z,100297.94
2022-11-28T04:31:43.458Z,100299.94
2022-11-28T04:34:15.613Z,100304.09
2022-11-28T04:36:44.941Z,100313.06
2022-11-28T04:39:23.457Z,100295.94
2022-11-28T04:41:56.339Z,100306.38
2022-11-28T04:44:28.164Z,100309.34
2022-11-28T04:46:57.985Z,100295.31
2022-11-28T04:49:26.331Z,100307.69
2022-11-28T04:52:16.070Z,100302.63
2022-11-28T04:54:57.799Z,100308.22
2022-11-28T04:57:31.672Z,100294.72
2022-11-28T05:00:04.134Z,100292.91
2022-11-28T05:02:31.119Z,100301.25
2022-11-28T05:04:58.345Z,100306.38
2022-11-28T05:07:24.743Z,100292.53
2022-11-28T05:09:51.514Z,100295.56
2022-11-28T05:12:18.004Z,100298.00
2022-11-28T05:14:44.578Z,100283.19
2022-11-28T05:17:13.625Z,100291.16
2022-11-28T05:19:40.148Z,100276.72
2022-11-28T05:22:06.625Z,100284.81
2022-11-28T05:24:33.031Z,100276.09
2022-11-28T05:26:59.519Z,100271.75
2022-11-28T05:29:28.234Z,100280.31
2022-11-28T05:31:54.761Z,100280.50
2022-11-28T05:34:21.269Z,100276.50
2022-11-28T05:36:47.742Z,100284.19
2022-11-28T05:39:16.733Z,100287.97
2022-11-28T05:41:43.182Z,100278.34
2022-11-28T05:44:10.207Z,100282.34
2022-11-28T05:46:38.771Z,100276.41
2022-11-28T05:49:05.572Z,100272.53
2022-11-28T05:51:32.113Z,100271.31
2022-11-28T05:53:58.574Z,100270.47
2022-11-28T05:56:25.051Z,100270.16
2022-11-28T05:58:53.982Z,100268.84
2022-11-28T06:01:29.426Z,100267.22
2022-11-28T06:04:00.612Z,100264.50
2022-11-28T06:06:30.024Z,100259.50
2022-11-28T06:09:00.452Z,100263.06
2022-11-28T06:11:29.301Z,100263.22
2022-11-28T06:13:58.196Z,100254.66
2022-11-28T06:16:27.821Z,100256.88
2022-11-28T06:18:56.313Z,100254.00
2022-11-28T06:21:23.414Z,100250.19
2022-11-28T06:23:52.555Z,100262.19
2022-11-28T06:26:22.047Z,100268.44
2022-11-28T06:28:48.921Z,100273.94
2022-11-28T06:31:20.156Z,100269.69
2022-11-28T06:33:47.258Z,100273.69
2022-11-28T06:36:15.336Z,100273.88
2022-11-28T06:38:41.834Z,100281.97
2022-11-28T06:41:14.129Z,100275.88
2022-11-28T06:43:41.041Z,100272.16
2022-11-28T06:46:16.510Z,100275.00
2022-11-28T06:48:44.552Z,100280.03
2022-11-28T06:51:11.795Z,100268.38
2022-11-28T06:53:41.640Z,100287.44
2022-11-28T06:56:10.335Z,100275.09
2022-11-28T06:58:39.951Z,100289.59
2022-11-28T07:01:07.726Z,100290.75
2022-11-28T07:03:34.131Z,100296.16
2022-11-28T07:06:02.672Z,100291.75
2022-11-28T07:08:30.704Z,100297.16
2022-11-28T07:10:57.837Z,100291.75
2022-11-28T07:13:27.413Z,100299.72
2022-11-28T07:15:53.795Z,100296.84
2022-11-28T07:18:20.221Z,100300.09
2022-11-28T07:20:48.852Z,100299.31
2022-11-28T07:23:15.340Z,100293.63
2022-11-28T07:25:41.726Z,100301.03
2022-11-28T07:28:08.128Z,100308.66
2022-11-28T07:30:34.621Z,100306.38
2022-11-28T07:33:03.206Z,100305.03
2022-11-28T07:35:29.602Z,100308.13
2022-11-28T07:37:56.057Z,100304.56
2022-11-28T07:40:22.883Z,100298.72
2022-11-28T07:42:53.964Z,100300.63
2022-11-28T07:45:20.513Z,100304.19
2022-11-28T07:47:46.936Z,100299.63
2022-11-28T07:50:15.761Z,100299.31
2022-11-28T07:52:42.166Z,100297.81
2022-11-28T07:55:08.728Z,100299.53
2022-11-28T07:57:40.004Z,100301.06
2022-11-28T08:00:07.293Z,100305.16
2022-11-28T08:02:33.811Z,100296.06
2022-11-28T08:05:00.389Z,100293.88
2022-11-28T08:07:26.878Z,100299.81
2022-11-28T08:09:53.360Z,100289.72
2022-11-28T08:12:19.813Z,100290.25
2022-11-28T08:14:46.392Z,100293.47
2022-11-28T08:17:12.825Z,100295.88
2022-11-28T08:19:39.272Z,100295.53
2022-11-28T08:22:05.681Z,100296.25
2022-11-28T08:24:32.091Z,100294.94
2022-11-28T08:26:58.441Z,100301.00
2022-11-28T08:29:24.797Z,100298.84
2022-11-28T08:31:51.272Z,100295.66
2022-11-28T08:34:17.660Z,100300.88
2022-11-28T08:36:44.302Z,100296.72
2022-11-28T08:39:26.996Z,100302.81
2022-11-28T08:41:57.317Z,100305.03
2022-11-28T08:44:30.328Z,100302.84
2022-11-28T08:46:56.932Z,100304.44
2022-11-28T08:49:23.510Z,100308.34
2022-11-28T08:51:49.845Z,100302.59
2022-11-28T08:54:16.742Z,100300.28
2022-11-28T08:56:45.203Z,100309.91
2022-11-28T08:59:11.625Z,100312.16
2022-11-28T09:01:39.463Z,100301.19
2022-11-28T09:04:06.070Z,100308.97
2022-11-28T09:06:34.875Z,100306.63
2022-11-28T09:09:03.816Z,100309.50
2022-11-28T09:11:32.602Z,100309.16
2022-11-28T09:14:00.317Z,100304.25
2022-11-28T09:16:26.782Z,100312.38
2022-11-28T09:18:54.593Z,100314.09
2022-11-28T09:21:20.953Z,100300.75
2022-11-28T09:23:51.922Z,100302.44
2022-11-28T09:26:20.427Z,100311.94
2022-11-28T09:28:47.498Z,100313.13
2022-11-28T09:31:15.909Z,100313.84
2022-11-28T09:33:45.494Z,100306.91
2022-11-28T09:36:14.989Z,100324.88
2022-11-28T09:38:41.585Z,100312.72
2022-11-28T09:41:35.722Z,100318.16
2022-11-28T09:44:22.299Z,100320.16
2022-11-28T09:46:52.284Z,100313.41
2022-11-28T09:49:27.431Z,100312.56
2022-11-28T09:51:56.884Z,100309.00
2022-11-28T09:54:47.195Z,100293.78
2022-11-28T09:57:33.568Z,100309.41
2022-11-28T10:00:00.811Z,100309.22
2022-11-28T10:02:43.638Z,100304.16
2022-11-28T10:05:28.756Z,100313.78
2022-11-28T10:08:10.543Z,100303.81
2022-11-28T10:10:50.384Z,100314.16
2022-11-28T10:13:41.134Z,100302.47
2022-11-28T10:16:57.185Z,100302.09
2022-11-28T10:19:56.161Z,100294.16
2022-11-28T10:22:33.576Z,100303.47
2022-11-28T10:25:06.260Z,100295.66
2022-11-28T10:27:34.974Z,100301.59
2022-11-28T10:30:10.763Z,100302.41
2022-11-28T10:32:45.324Z,100302.75
2022-11-28T10:35:28.107Z,100311.72
2022-11-28T10:37:55.186Z,100308.66
2022-11-28T10:40:54.807Z,100305.63
2022-11-28T10:43:24.194Z,100298.16
2022-11-28T10:46:06.132Z,100297.84
2022-11-28T10:48:51.233Z,100297.50
2022-11-28T10:51:38.520Z,100288.38
2022-11-28T10:54:20.347Z,100286.69
2022-11-28T10:56:55.965Z,100290.44
2022-11-28T10:59:39.502Z,100283.66
2022-11-28T11:02:41.532Z,100276.88
2022-11-28T11:05:13.222Z,100279.25
2022-11-28T11:07:48.304Z,100274.16
2022-11-28T11:10:18.001Z,100267.03
2022-11-28T11:12:45.593Z,100258.25
2022-11-28T11:15:41.287Z,100272.31
2022-11-28T11:18:32.378Z,100266.69
2022-11-28T11:21:10.168Z,100266.88
2022-11-28T11:23:38.893Z,100256.03
2022-11-28T11:26:10.139Z,100252.78
2022-11-28T11:28:45.830Z,100250.41
2022-11-28T11:31:22.329Z,100247.34
2022-11-28T11:34:00.658Z,100249.22
2022-11-28T11:36:32.117Z,100250.91
2022-11-28T11:39:27.658Z,100244.97
2022-11-28T11:41:59.967Z,100239.91
2022-11-28T11:44:29.160Z,100245.97
2022-11-28T11:47:01.752Z,100238.19
2022-11-28T11:49:39.296Z,100245.81
2022-11-28T11:52:12.893Z,100243.28
2022-11-28T11:54:57.891Z,100237.53
2022-11-28T11:57:33.565Z,100225.84
2022-11-28T12:00:21.937Z,100221.56
2022-11-28T12:03:03.229Z,100218.19
2022-11-28T12:05:59.331Z,100231.03
2022-11-28T12:08:45.389Z,100231.38
2022-11-28T12:11:33.781Z,100235.09
2022-11-28T12:14:19.270Z,100231.03
2022-11-28T12:17:32.731Z,100221.81
2022-11-28T12:20:02.241Z,100229.41
2022-11-28T12:22:50.454Z,100220.25
2022-11-28T12:25:27.781Z,100224.13
2022-11-28T12:28:26.649Z,100227.00
2022-11-28T12:31:12.396Z,100217.13
2022-11-28T12:34:11.949Z,100218.97
2022-11-28T12:36:53.656Z,100217.94
2022-11-28T12:39:43.696Z,100220.13
2022-11-28T12:42:38.082Z,100220.13
2022-11-28T12:45:31.476Z,100208.41
2022-11-28T12:48:22.346Z,100212.78
2022-11-28T12:51:00.954Z,100209.75
2022-11-28T12:53:49.164Z,100207.50
2022-11-28T12:56:48.584Z,100209.69
2022-11-28T12:59:37.184Z,100207.81
2022-11-28T13:02:54.903Z,100209.75
2022-11-28T13:05:39.833Z,100206.41
2022-11-28T13:08:31.175Z,100199.75
2022-11-28T13:11:00.543Z,100197.03
2022-11-28T13:13:32.512Z,100191.97
2022-11-28T13:16:15.901Z,100195.03
2022-11-28T13:19:09.204Z,100184.22
2022-11-28T13:21:44.483Z,100181.31
2022-11-28T13:24:39.121Z,100183.53
2022-11-28T13:27:32.404Z,100184.03
2022-11-28T13:30:22.585Z,100187.09
2022-11-28T13:33:23.222Z,100185.97
2022-11-28T13:35:50.168Z,100190.06
2022-11-28T13:38:36.145Z,100191.78
2022-11-28T13:41:06.219Z,100187.53
2022-11-28T13:43:44.295Z,100180.59
2022-11-28T13:46:11.112Z,100179.56
2022-11-28T13:49:06.091Z,100182.44
2022-11-28T13:51:31.616Z,100181.94
2022-11-28T13:54:17.096Z,100180.75
2022-11-28T13:56:45.865Z,100186.19
2022-11-28T13:59:19.463Z,100181.44
2022-11-28T14:01:50.757Z,100180.38
2022-11-28T14:04:18.664Z,100179.91
2022-11-28T14:06:48.145Z,100181.09
2022-11-28T14:09:16.996Z,100175.81
2022-11-28T14:11:49.871Z,100185.19
2022-11-28T14:14:33.522Z,100183.84
2022-11-28T14:17:00.460Z,100183.19
2022-11-28T14:19:41.618Z,100183.53
2022-11-28T14:22:27.663Z,100183.72
2022-11-28T14:25:14.422Z,100189.00
2022-11-28T14:27:54.436Z,100184.59
2022-11-28T14:30:32.154Z,100184.97
2022-11-28T14:33:03.473Z,100184.63
2022-11-28T14:35:54.787Z,100179.19
2022-11-28T14:38:59.430Z,100186.00
2022-11-28T14:41:26.071Z,100194.00
2022-11-28T14:43:53.532Z,100197.56
2022-11-28T14:46:29.759Z,100192.81
2022-11-28T14:48:59.301Z,100195.06
2022-11-28T14:51:46.749Z,100199.13
2022-11-28T14:54:29.667Z,100193.22
2022-11-28T14:57:00.017Z,100196.47
2022-11-28T14:59:36.884Z,100195.44
2022-11-28T15:02:12.668Z,100197.84
2022-11-28T15:05:17.876Z,100194.81
2022-11-28T15:08:12.926Z,100196.88
2022-11-28T15:10:51.865Z,100198.59
2022-11-28T15:13:42.881Z,100199.44
2022-11-28T15:16:13.706Z,100197.75
2022-11-28T15:18:51.676Z,100199.28
2022-11-28T15:21:19.735Z,100202.66
2022-11-28T15:23:49.423Z,100201.50
2022-11-28T15:26:22.846Z,100199.78
2022-11-28T15:28:49.381Z,100210.13
2022-11-28T15:31:24.357Z,100219.78
2022-11-28T15:33:53.406Z,100212.16
2022-11-28T15:36:27.460Z,100217.06
2022-11-28T15:38:55.203Z,100218.91
2022-11-28T15:41:26.346Z,100217.22
2022-11-28T15:43:56.175Z,100215.38
2022-11-28T15:46:34.618Z,100217.22
2022-11-28T15:49:01.701Z,100217.91
2022-11-28T15:51:34.953Z,100221.28
2022-11-28T15:54:05.053Z,100208.94
2022-11-28T15:56:34.691Z,100216.88
2022-11-28T15:59:01.152Z,100211.47
2022-11-28T16:01:30.670Z,100213.00
2022-11-28T16:04:18.538Z,100213.84
2022-11-28T16:06:51.480Z,100217.38
2022-11-28T16:09:17.842Z,100224.69
2022-11-28T16:11:48.092Z,100212.81
2022-11-28T16:14:21.548Z,100220.63
2022-11-28T16:16:48.263Z,100229.44
2022-11-28T16:19:24.879Z,100233.00
2022-11-28T16:21:57.886Z,100222.81
2022-11-28T16:24:33.948Z,100225.72
2022-11-28T16:27:08.146Z,100229.09
2022-11-28T16:29:36.383Z,100229.09
2022-11-28T16:32:07.913Z,100232.50
2022-11-28T16:34:48.846Z,100230.44
2022-11-28T16:37:20.960Z,100230.59
2022-11-28T16:39:47.849Z,100230.59
2022-11-28T16:42:20.165Z,100229.59
2022-11-28T16:44:46.697Z,100236.22
2022-11-28T16:47:27.814Z,100233.66
2022-11-28T16:50:15.345Z,100232.66
2022-11-28T16:52:47.698Z,100238.59
2022-11-28T16:55:41.230Z,100238.75
2022-11-28T16:58:14.066Z,100235.19
2022-11-28T17:00:44.425Z,100232.31
2022-11-28T17:03:45.804Z,100236.03
2022-11-28T17:06:42.510Z,100230.63
2022-11-28T17:09:15.714Z,100236.88
2022-11-28T17:12:03.039Z,100230.63
2022-11-28T17:14:31.995Z,100229.75
2022-11-28T17:17:01.477Z,100235.19
2022-11-28T17:19:30.678Z,100230.81
2022-11-28T17:21:59.742Z,100231.66
2022-11-28T17:24:36.148Z,100227.41
2022-11-28T17:27:03.455Z,100238.41
2022-11-28T17:29:34.837Z,100235.53
2022-11-28T17:32:02.106Z,100230.97
2022-11-28T17:34:31.501Z,100233.66
2022-11-28T17:36:59.339Z,100228.44
2022-11-28T17:39:27.349Z,100240.28
2022-11-28T17:41:57.069Z,100229.59
2022-11-28T17:44:28.924Z,100235.00
2022-11-28T17:46:56.724Z,100230.44
2022-11-28T17:49:23.806Z,100235.72
2022-11-28T17:51:52.389Z,100239.44
2022-11-28T17:54:20.718Z,100239.59
2022-11-28T17:56:51.284Z,100227.75
2022-11-28T17:59:21.239Z,100236.72
2022-11-28T18:01:50.986Z,100235.72
2022-11-28T18:04:17.783Z,100236.56
2022-11-28T18:06:46.133Z,100229.44
2022-11-28T18:09:13.649Z,100233.84
2022-11-28T18:11:46.408Z,100228.25
2022-11-28T18:14:13.674Z,100232.81
2022-11-28T18:16:43.905Z,100232.81
2022-11-28T18:19:10.530Z,100238.06
2022-11-28T18:21:36.894Z,100242.66
2022-11-28T18:24:04.569Z,100242.50
2022-11-28T18:26:33.209Z,100246.72
2022-11-28T18:28:59.693Z,100243.00
2022-11-28T18:31:28.343Z,100245.00
2022-11-28T18:34:01.408Z,100251.13
2022-11-28T18:36:30.167Z,100244.66
2022-11-28T18:38:58.866Z,100241.97
2022-11-28T18:41:26.138Z,100243.66
2022-11-28T18:44:00.516Z,100248.06
2022-11-28T18:46:28.863Z,100239.94
2022-11-28T18:48:57.943Z,100246.22
2022-11-28T18:51:26.907Z,100246.22
2022-11-28T18:53:55.229Z,100250.44
2022-11-28T18:56:21.904Z,100245.88
2022-11-28T18:58:51.802Z,100247.72
2022-11-28T19:01:28.556Z,100241.31
2022-11-28T19:04:00.353Z,100247.56
2022-11-28T19:06:27.345Z,100248.44
2022-11-28T19:08:58.485Z,100248.44
2022-11-28T19:11:25.555Z,100250.09
2022-11-28T19:13:55.038Z,100251.97
2022-11-28T19:16:32.020Z,100250.09
2022-11-28T19:19:00.036Z,100257.22
2022-11-28T19:21:29.531Z,100249.75
2022-11-28T19:23:59.404Z,100246.22
2022-11-28T19:26:27.520Z,100246.88
2022-11-28T19:28:55.254Z,100253.16
2022-11-28T19:31:24.356Z,100254.00
2022-11-28T19:34:00.409Z,100244.03
2022-11-28T19:36:29.771Z,100238.41
2022-11-28T19:38:56.232Z,100249.25
2022-11-28T19:41:27.734Z,100253.81
2022-11-28T19:43:54.576Z,100252.16
2022-11-28T19:46:21.286Z,100250.81
2022-11-28T19:48:47.755Z,100250.09
2022-11-28T19:51:14.348Z,100262.81
2022-11-28T19:53:44.873Z,100253.50
2022-11-28T19:56:18.124Z,100259.94
2022-11-28T19:58:45.134Z,100254.53
2022-11-28T20:01:13.062Z,100259.09
2022-11-28T20:03:43.247Z,100257.03
2022-11-28T20:06:29.102Z,100259.94
2022-11-28T20:09:00.978Z,100248.25
2022-11-28T20:11:32.155Z,100259.75
2022-11-28T20:14:04.669Z,100265.03
2022-11-28T20:16:35.706Z,100261.31
2022-11-28T20:19:05.519Z,100260.44
2022-11-28T20:21:35.230Z,100265.03
2022-11-28T20:24:08.296Z,100265.03
2022-11-28T20:26:38.369Z,100269.59
2022-11-28T20:29:06.087Z,100275.88
2022-11-28T20:31:41.775Z,100272.31
2022-11-28T20:34:08.316Z,100276.72
2022-11-28T20:36:35.196Z,100276.88
2022-11-28T20:39:02.521Z,100279.44
2022-11-28T20:41:29.806Z,100281.28
2022-11-28T20:43:58.818Z,100282.28
2022-11-28T20:46:30.530Z,100285.84
2022-11-28T20:48:59.456Z,100281.28
2022-11-28T20:51:28.513Z,100288.75
2022-11-28T20:53:56.955Z,100287.72
2022-11-28T20:56:26.505Z,100282.13
2022-11-28T20:58:52.835Z,100284.00
2022-11-28T21:01:25.489Z,100286.72
2022-11-28T21:03:52.470Z,100278.56
2022-11-28T21:06:19.484Z,100280.28
2022-11-28T21:08:46.051Z,100283.66
2022-11-28T21:11:30.929Z,100284.66
2022-11-28T21:14:04.694Z,100286.38
2022-11-28T21:16:32.044Z,100282.81
2022-11-28T21:19:03.201Z,100284.50
2022-11-28T21:21:32.176Z,100285.34
2022-11-28T21:24:11.042Z,100283.50
2022-11-28T21:26:42.317Z,100290.63
2022-11-28T21:29:12.475Z,100280.59
2022-11-28T21:31:42.491Z,100283.16
2022-11-28T21:34:14.008Z,100287.72
2022-11-28T21:36:43.075Z,100284.16
2022-11-28T21:39:16.069Z,100283.16
2022-11-28T21:41:42.574Z,100292.28
2022-11-28T21:44:09.000Z,100286.88
2022-11-28T21:46:35.406Z,100288.56
2022-11-28T21:49:02.011Z,100290.44
2022-11-28T21:51:31.536Z,100285.00
2022-11-28T21:53:58.343Z,100285.88
2022-11-28T21:56:27.267Z,100294.84
2022-11-28T21:58:53.776Z,100293.00
2022-11-28T22:01:23.706Z,100290.28
2022-11-28T22:03:50.101Z,100284.00
2022-11-28T22:06:22.253Z,100287.72
2022-11-28T22:08:51.894Z,100292.28
2022-11-28T22:11:20.480Z,100291.28
2022-11-28T22:13:48.297Z,100292.28
2022-11-28T22:16:18.287Z,100294.84
2022-11-28T22:18:45.690Z,100300.28
2022-11-28T22:21:49.873Z,100298.56
2022-11-28T22:23:58.530Z,100304.84
2022-11-28T22:26:24.933Z,100300.28
2022-11-28T22:28:53.873Z,100295.69
2022-11-28T22:31:21.125Z,100299.41
2022-11-28T22:33:49.267Z,100299.41
2022-11-28T22:36:18.321Z,100301.28
2022-11-28T22:38:46.622Z,100302.13
2022-11-28T22:41:22.008Z,100302.13
2022-11-28T22:43:59.014Z,100304.84
2022-11-28T22:46:25.509Z,100311.13
2022-11-28T22:48:52.211Z,100315.69
2022-11-28T22:51:24.284Z,100310.28
2022-11-28T22:53:55.490Z,100315.69
2022-11-28T22:56:22.553Z,100311.28
2022-11-28T22:58:50.172Z,100309.41
2022-11-28T23:01:23.908Z,100312.97
2022-11-28T23:03:51.342Z,100313.13
2022-11-28T23:06:24.341Z,100323.97
2022-11-28T23:08:51.862Z,100321.28
2022-11-28T23:11:24.154Z,100320.59
2022-11-28T23:13:51.722Z,100320.44
2022-11-28T23:16:19.657Z,100316.88
2022-11-28T23:18:49.194Z,100318.75
2022-11-28T23:21:16.592Z,100319.59
2022-11-28T23:23:46.010Z,100306.03
2022-11-28T23:26:24.361Z,100311.47
2022-11-28T23:28:54.113Z,100311.47
2022-11-28T23:31:23.749Z,100313.31
2022-11-28T23:33:50.847Z,100315.19
2022-11-28T23:36:19.977Z,100314.19
2022-11-28T23:38:48.069Z,100309.75
2022-11-28T23:41:15.101Z,100315.19
2022-11-28T23:43:44.888Z,100318.06
2022-11-28T23:46:13.907Z,100316.03
2022-11-28T23:48:40.804Z,100319.59
2022-11-28T23:51:07.471Z,100319.75
2022-11-28T23:53:34.871Z,100320.59
2022-11-28T23:56:07.220Z,100317.91
2022-11-28T23:58:34.087Z,100319.75
